sensor_id;sensor_type;location;lat;lon;timestamp;P1;durP1;ratioP1;P2;durP2;ratioP2
67272;SDS011;54190;49.770;9.250;2023-04-16T00:00:21;9.57;;;7.00;;
67272;SDS011;54190;49.770;9.250;2023-04-16T00:02:46;10.03;;;7.40;;
67272;SDS011;54190;49.770;9.250;2023-04-16T00:05:13;11.17;;;8.37;;
67272;SDS011;54190;49.770;9.250;2023-04-16T00:07:38;10.00;;;7.40;;
67272;SDS011;54190;49.770;9.250;2023-04-16T00:10:05;10.20;;;6.90;;
67272;SDS011;54190;49.770;9.250;2023-04-16T00:12:31;9.30;;;7.17;;
67272;SDS011;54190;49.770;9.250;2023-04-16T00:14:57;11.60;;;7.87;;
67272;SDS011;54190;49.770;9.250;2023-04-16T00:17:23;10.50;;;7.10;;
67272;SDS011;54190;49.770;9.250;2023-04-16T00:19:49;12.10;;;8.20;;
67272;SDS011;54190;49.770;9.250;2023-04-16T00:22:15;9.60;;;7.17;;
67272;SDS011;54190;49.770;9.250;2023-04-16T00:24:40;10.77;;;7.83;;
67272;SDS011;54190;49.770;9.250;2023-04-16T00:27:06;10.97;;;7.60;;
67272;SDS011;54190;49.770;9.250;2023-04-16T00:29:32;9.33;;;7.27;;
67272;SDS011;54190;49.770;9.250;2023-04-16T00:32:00;10.67;;;7.77;;
67272;SDS011;54190;49.770;9.250;2023-04-16T00:34:25;10.67;;;7.03;;
67272;SDS011;54190;49.770;9.250;2023-04-16T00:36:51;10.57;;;7.47;;
67272;SDS011;54190;49.770;9.250;2023-04-16T00:39:17;11.50;;;7.53;;
67272;SDS011;54190;49.770;9.250;2023-04-16T00:41:43;9.87;;;7.60;;
67272;SDS011;54190;49.770;9.250;2023-04-16T00:44:08;10.80;;;7.83;;
67272;SDS011;54190;49.770;9.250;2023-04-16T00:46:35;10.67;;;7.87;;
67272;SDS011;54190;49.770;9.250;2023-04-16T00:49:01;12.80;;;7.57;;
67272;SDS011;54190;49.770;9.250;2023-04-16T00:51:28;12.10;;;8.40;;
67272;SDS011;54190;49.770;9.250;2023-04-16T00:53:55;11.17;;;8.23;;
67272;SDS011;54190;49.770;9.250;2023-04-16T00:56:21;11.77;;;8.03;;
67272;SDS011;54190;49.770;9.250;2023-04-16T00:58:48;12.40;;;8.27;;
67272;SDS011;54190;49.770;9.250;2023-04-16T01:01:14;11.30;;;7.73;;
67272;SDS011;54190;49.770;9.250;2023-04-16T01:03:44;12.70;;;8.47;;
67272;SDS011;54190;49.770;9.250;2023-04-16T01:06:11;12.93;;;8.60;;
67272;SDS011;54190;49.770;9.250;2023-04-16T01:08:37;14.80;;;9.27;;
67272;SDS011;54190;49.770;9.250;2023-04-16T01:11:03;11.60;;;8.30;;
67272;SDS011;54190;49.770;9.250;2023-04-16T01:13:29;13.57;;;8.90;;
67272;SDS011;54190;49.770;9.250;2023-04-16T01:15:57;12.60;;;7.77;;
67272;SDS011;54190;49.770;9.250;2023-04-16T01:18:24;12.73;;;8.00;;
67272;SDS011;54190;49.770;9.250;2023-04-16T01:20:50;11.43;;;8.30;;
67272;SDS011;54190;49.770;9.250;2023-04-16T01:23:17;12.90;;;8.77;;
67272;SDS011;54190;49.770;9.250;2023-04-16T01:25:43;13.13;;;9.37;;
67272;SDS011;54190;49.770;9.250;2023-04-16T01:28:09;12.70;;;8.07;;
67272;SDS011;54190;49.770;9.250;2023-04-16T01:30:35;12.43;;;9.00;;
67272;SDS011;54190;49.770;9.250;2023-04-16T01:33:12;12.50;;;8.40;;
67272;SDS011;54190;49.770;9.250;2023-04-16T01:35:39;12.70;;;9.07;;
67272;SDS011;54190;49.770;9.250;2023-04-16T01:38:06;14.10;;;9.60;;
67272;SDS011;54190;49.770;9.250;2023-04-16T01:40:33;17.20;;;10.20;;
67272;SDS011;54190;49.770;9.250;2023-04-16T01:42:59;14.93;;;10.30;;
67272;SDS011;54190;49.770;9.250;2023-04-16T01:45:25;14.03;;;8.60;;
67272;SDS011;54190;49.770;9.250;2023-04-16T01:47:50;13.97;;;9.97;;
67272;SDS011;54190;49.770;9.250;2023-04-16T01:50:16;14.13;;;9.40;;
67272;SDS011;54190;49.770;9.250;2023-04-16T01:52:46;13.93;;;9.90;;
67272;SDS011;54190;49.770;9.250;2023-04-16T01:55:12;11.37;;;8.43;;
67272;SDS011;54190;49.770;9.250;2023-04-16T01:57:38;17.00;;;10.60;;
67272;SDS011;54190;49.770;9.250;2023-04-16T02:00:03;14.50;;;8.73;;
67272;SDS011;54190;49.770;9.250;2023-04-16T02:02:31;17.13;;;10.37;;
67272;SDS011;54190;49.770;9.250;2023-04-16T02:04:57;15.13;;;9.27;;
67272;SDS011;54190;49.770;9.250;2023-04-16T02:07:23;16.00;;;10.20;;
67272;SDS011;54190;49.770;9.250;2023-04-16T02:09:49;14.73;;;9.90;;
67272;SDS011;54190;49.770;9.250;2023-04-16T02:12:15;14.57;;;9.93;;
67272;SDS011;54190;49.770;9.250;2023-04-16T02:14:41;16.77;;;10.33;;
67272;SDS011;54190;49.770;9.250;2023-04-16T02:17:07;15.53;;;10.40;;
67272;SDS011;54190;49.770;9.250;2023-04-16T02:19:39;16.73;;;11.13;;
67272;SDS011;54190;49.770;9.250;2023-04-16T02:22:06;17.37;;;10.67;;
67272;SDS011;54190;49.770;9.250;2023-04-16T02:24:32;19.40;;;11.00;;
67272;SDS011;54190;49.770;9.250;2023-04-16T02:27:00;15.70;;;10.53;;
67272;SDS011;54190;49.770;9.250;2023-04-16T02:29:26;16.70;;;11.33;;
67272;SDS011;54190;49.770;9.250;2023-04-16T02:31:59;16.30;;;10.10;;
67272;SDS011;54190;49.770;9.250;2023-04-16T02:34:25;17.50;;;10.97;;
67272;SDS011;54190;49.770;9.250;2023-04-16T02:36:51;15.53;;;10.00;;
67272;SDS011;54190;49.770;9.250;2023-04-16T02:39:18;20.40;;;12.23;;
67272;SDS011;54190;49.770;9.250;2023-04-16T02:41:44;16.17;;;10.90;;
67272;SDS011;54190;49.770;9.250;2023-04-16T02:44:09;17.37;;;10.50;;
67272;SDS011;54190;49.770;9.250;2023-04-16T02:46:35;16.77;;;10.67;;
67272;SDS011;54190;49.770;9.250;2023-04-16T02:49:01;18.10;;;11.37;;
67272;SDS011;54190;49.770;9.250;2023-04-16T02:51:27;17.23;;;11.20;;
67272;SDS011;54190;49.770;9.250;2023-04-16T02:53:53;17.40;;;11.00;;
67272;SDS011;54190;49.770;9.250;2023-04-16T02:56:18;16.60;;;11.03;;
67272;SDS011;54190;49.770;9.250;2023-04-16T02:58:44;17.10;;;10.83;;
67272;SDS011;54190;49.770;9.250;2023-04-16T03:01:10;17.00;;;10.50;;
67272;SDS011;54190;49.770;9.250;2023-04-16T03:03:35;17.40;;;11.60;;
67272;SDS011;54190;49.770;9.250;2023-04-16T03:06:01;17.07;;;11.20;;
67272;SDS011;54190;49.770;9.250;2023-04-16T03:08:27;16.20;;;10.83;;
67272;SDS011;54190;49.770;9.250;2023-04-16T03:10:52;17.30;;;11.77;;
67272;SDS011;54190;49.770;9.250;2023-04-16T03:13:18;19.40;;;12.47;;
67272;SDS011;54190;49.770;9.250;2023-04-16T03:15:47;18.90;;;13.10;;
67272;SDS011;54190;49.770;9.250;2023-04-16T03:18:14;18.40;;;12.27;;
67272;SDS011;54190;49.770;9.250;2023-04-16T03:20:39;18.27;;;12.70;;
67272;SDS011;54190;49.770;9.250;2023-04-16T03:23:05;17.60;;;12.50;;
67272;SDS011;54190;49.770;9.250;2023-04-16T03:25:31;18.07;;;12.03;;
67272;SDS011;54190;49.770;9.250;2023-04-16T03:27:56;18.97;;;12.30;;
67272;SDS011;54190;49.770;9.250;2023-04-16T03:30:22;16.87;;;11.50;;
67272;SDS011;54190;49.770;9.250;2023-04-16T03:32:48;17.83;;;11.77;;
67272;SDS011;54190;49.770;9.250;2023-04-16T03:35:14;17.80;;;12.30;;
67272;SDS011;54190;49.770;9.250;2023-04-16T03:37:40;20.47;;;11.77;;
67272;SDS011;54190;49.770;9.250;2023-04-16T03:40:06;17.80;;;11.20;;
67272;SDS011;54190;49.770;9.250;2023-04-16T03:42:32;18.03;;;10.73;;
67272;SDS011;54190;49.770;9.250;2023-04-16T03:44:58;22.77;;;12.30;;
67272;SDS011;54190;49.770;9.250;2023-04-16T03:47:25;17.50;;;11.60;;
67272;SDS011;54190;49.770;9.250;2023-04-16T03:49:54;20.60;;;11.80;;
67272;SDS011;54190;49.770;9.250;2023-04-16T03:52:19;16.20;;;11.33;;
67272;SDS011;54190;49.770;9.250;2023-04-16T03:54:45;20.67;;;11.47;;
67272;SDS011;54190;49.770;9.250;2023-04-16T03:57:23;18.10;;;11.20;;
67272;SDS011;54190;49.770;9.250;2023-04-16T03:59:49;17.90;;;11.80;;
67272;SDS011;54190;49.770;9.250;2023-04-16T04:02:16;20.30;;;11.83;;
67272;SDS011;54190;49.770;9.250;2023-04-16T04:04:42;19.77;;;12.73;;
67272;SDS011;54190;49.770;9.250;2023-04-16T04:07:08;16.10;;;11.47;;
67272;SDS011;54190;49.770;9.250;2023-04-16T04:09:34;16.47;;;11.10;;
67272;SDS011;54190;49.770;9.250;2023-04-16T04:12:01;21.73;;;12.50;;
67272;SDS011;54190;49.770;9.250;2023-04-16T04:14:28;17.07;;;11.30;;
67272;SDS011;54190;49.770;9.250;2023-04-16T04:16:53;19.20;;;12.17;;
67272;SDS011;54190;49.770;9.250;2023-04-16T04:19:19;16.70;;;11.53;;
67272;SDS011;54190;49.770;9.250;2023-04-16T04:21:46;17.73;;;11.20;;
67272;SDS011;54190;49.770;9.250;2023-04-16T04:24:12;20.17;;;11.70;;
67272;SDS011;54190;49.770;9.250;2023-04-16T04:26:38;21.93;;;12.03;;
67272;SDS011;54190;49.770;9.250;2023-04-16T04:29:03;18.87;;;11.77;;
67272;SDS011;54190;49.770;9.250;2023-04-16T04:31:29;18.83;;;12.00;;
67272;SDS011;54190;49.770;9.250;2023-04-16T04:33:55;26.30;;;11.47;;
67272;SDS011;54190;49.770;9.250;2023-04-16T04:36:21;17.07;;;11.37;;
67272;SDS011;54190;49.770;9.250;2023-04-16T04:38:46;20.67;;;11.60;;
67272;SDS011;54190;49.770;9.250;2023-04-16T04:41:13;20.13;;;13.53;;
67272;SDS011;54190;49.770;9.250;2023-04-16T04:43:39;21.70;;;13.47;;
67272;SDS011;54190;49.770;9.250;2023-04-16T04:46:05;20.27;;;12.83;;
67272;SDS011;54190;49.770;9.250;2023-04-16T04:48:31;18.10;;;12.27;;
67272;SDS011;54190;49.770;9.250;2023-04-16T04:50:57;16.70;;;11.47;;
67272;SDS011;54190;49.770;9.250;2023-04-16T04:53:22;20.00;;;12.30;;
67272;SDS011;54190;49.770;9.250;2023-04-16T04:55:48;17.13;;;11.83;;
67272;SDS011;54190;49.770;9.250;2023-04-16T04:58:13;21.03;;;12.30;;
67272;SDS011;54190;49.770;9.250;2023-04-16T05:00:41;20.27;;;12.20;;
67272;SDS011;54190;49.770;9.250;2023-04-16T05:03:08;16.73;;;11.67;;
67272;SDS011;54190;49.770;9.250;2023-04-16T05:05:35;16.13;;;11.17;;
67272;SDS011;54190;49.770;9.250;2023-04-16T05:08:01;16.00;;;10.60;;
67272;SDS011;54190;49.770;9.250;2023-04-16T05:10:27;16.90;;;11.80;;
67272;SDS011;54190;49.770;9.250;2023-04-16T05:12:52;16.10;;;11.20;;
67272;SDS011;54190;49.770;9.250;2023-04-16T05:15:18;18.50;;;11.63;;
67272;SDS011;54190;49.770;9.250;2023-04-16T05:17:44;18.60;;;11.90;;
67272;SDS011;54190;49.770;9.250;2023-04-16T05:20:09;15.10;;;11.00;;
67272;SDS011;54190;49.770;9.250;2023-04-16T05:22:35;22.63;;;12.73;;
67272;SDS011;54190;49.770;9.250;2023-04-16T05:25:01;17.87;;;11.83;;
67272;SDS011;54190;49.770;9.250;2023-04-16T05:27:27;18.57;;;12.40;;
67272;SDS011;54190;49.770;9.250;2023-04-16T05:29:53;19.17;;;12.90;;
67272;SDS011;54190;49.770;9.250;2023-04-16T05:32:18;19.20;;;12.87;;
67272;SDS011;54190;49.770;9.250;2023-04-16T05:34:44;19.10;;;12.20;;
67272;SDS011;54190;49.770;9.250;2023-04-16T05:37:09;17.77;;;11.87;;
67272;SDS011;54190;49.770;9.250;2023-04-16T05:39:35;18.37;;;11.50;;
67272;SDS011;54190;49.770;9.250;2023-04-16T05:42:01;17.93;;;12.20;;
67272;SDS011;54190;49.770;9.250;2023-04-16T05:44:26;16.57;;;11.80;;
67272;SDS011;54190;49.770;9.250;2023-04-16T05:46:52;15.40;;;10.67;;
67272;SDS011;54190;49.770;9.250;2023-04-16T05:49:18;17.07;;;11.10;;
67272;SDS011;54190;49.770;9.250;2023-04-16T05:51:44;18.90;;;12.37;;
67272;SDS011;54190;49.770;9.250;2023-04-16T05:54:09;18.33;;;12.13;;
67272;SDS011;54190;49.770;9.250;2023-04-16T05:56:35;16.77;;;11.67;;
67272;SDS011;54190;49.770;9.250;2023-04-16T05:59:01;20.00;;;12.53;;
67272;SDS011;54190;49.770;9.250;2023-04-16T06:01:26;17.90;;;11.93;;
67272;SDS011;54190;49.770;9.250;2023-04-16T06:03:52;15.97;;;11.03;;
67272;SDS011;54190;49.770;9.250;2023-04-16T06:06:18;18.30;;;11.60;;
67272;SDS011;54190;49.770;9.250;2023-04-16T06:08:43;18.97;;;12.57;;
67272;SDS011;54190;49.770;9.250;2023-04-16T06:11:09;18.40;;;11.73;;
67272;SDS011;54190;49.770;9.250;2023-04-16T06:13:35;20.50;;;13.03;;
67272;SDS011;54190;49.770;9.250;2023-04-16T06:16:01;19.23;;;12.40;;
67272;SDS011;54190;49.770;9.250;2023-04-16T06:18:26;17.30;;;11.60;;
67272;SDS011;54190;49.770;9.250;2023-04-16T06:20:52;17.70;;;11.80;;
67272;SDS011;54190;49.770;9.250;2023-04-16T06:23:18;17.93;;;13.03;;
67272;SDS011;54190;49.770;9.250;2023-04-16T06:25:43;20.70;;;12.77;;
67272;SDS011;54190;49.770;9.250;2023-04-16T06:28:09;19.50;;;12.30;;
67272;SDS011;54190;49.770;9.250;2023-04-16T06:30:35;19.87;;;13.20;;
67272;SDS011;54190;49.770;9.250;2023-04-16T06:33:00;20.70;;;12.70;;
67272;SDS011;54190;49.770;9.250;2023-04-16T06:35:26;18.70;;;11.83;;
67272;SDS011;54190;49.770;9.250;2023-04-16T06:37:51;18.87;;;12.37;;
67272;SDS011;54190;49.770;9.250;2023-04-16T06:40:17;16.33;;;11.73;;
67272;SDS011;54190;49.770;9.250;2023-04-16T06:42:43;19.43;;;11.07;;
67272;SDS011;54190;49.770;9.250;2023-04-16T06:45:10;18.80;;;11.50;;
67272;SDS011;54190;49.770;9.250;2023-04-16T06:47:36;14.80;;;10.07;;
67272;SDS011;54190;49.770;9.250;2023-04-16T06:50:01;13.73;;;9.70;;
67272;SDS011;54190;49.770;9.250;2023-04-16T06:52:27;15.37;;;11.00;;
67272;SDS011;54190;49.770;9.250;2023-04-16T06:54:53;16.17;;;10.70;;
67272;SDS011;54190;49.770;9.250;2023-04-16T06:57:19;18.53;;;12.00;;
67272;SDS011;54190;49.770;9.250;2023-04-16T06:59:44;16.83;;;10.80;;
67272;SDS011;54190;49.770;9.250;2023-04-16T07:02:10;18.33;;;11.87;;
67272;SDS011;54190;49.770;9.250;2023-04-16T07:04:35;16.90;;;10.43;;
67272;SDS011;54190;49.770;9.250;2023-04-16T07:07:01;16.80;;;11.20;;
67272;SDS011;54190;49.770;9.250;2023-04-16T07:09:27;16.40;;;10.93;;
67272;SDS011;54190;49.770;9.250;2023-04-16T07:11:52;17.13;;;11.70;;
67272;SDS011;54190;49.770;9.250;2023-04-16T07:14:18;15.40;;;10.67;;
67272;SDS011;54190;49.770;9.250;2023-04-16T07:16:44;16.53;;;12.37;;
67272;SDS011;54190;49.770;9.250;2023-04-16T07:19:10;18.93;;;12.50;;
67272;SDS011;54190;49.770;9.250;2023-04-16T07:21:36;21.67;;;13.80;;
67272;SDS011;54190;49.770;9.250;2023-04-16T07:24:02;23.10;;;13.87;;
67272;SDS011;54190;49.770;9.250;2023-04-16T07:26:28;20.77;;;13.03;;
67272;SDS011;54190;49.770;9.250;2023-04-16T07:28:54;20.90;;;13.47;;
67272;SDS011;54190;49.770;9.250;2023-04-16T07:31:19;18.37;;;12.80;;
67272;SDS011;54190;49.770;9.250;2023-04-16T07:33:45;19.33;;;12.47;;
67272;SDS011;54190;49.770;9.250;2023-04-16T07:36:11;21.47;;;13.63;;
67272;SDS011;54190;49.770;9.250;2023-04-16T07:38:36;25.00;;;16.50;;
67272;SDS011;54190;49.770;9.250;2023-04-16T07:41:02;25.93;;;16.30;;
67272;SDS011;54190;49.770;9.250;2023-04-16T07:43:28;26.83;;;14.60;;
67272;SDS011;54190;49.770;9.250;2023-04-16T07:45:53;20.90;;;14.20;;
67272;SDS011;54190;49.770;9.250;2023-04-16T07:48:20;20.67;;;13.80;;
67272;SDS011;54190;49.770;9.250;2023-04-16T07:50:45;18.23;;;13.00;;
67272;SDS011;54190;49.770;9.250;2023-04-16T07:53:11;20.17;;;13.50;;
67272;SDS011;54190;49.770;9.250;2023-04-16T07:55:37;18.77;;;12.60;;
67272;SDS011;54190;49.770;9.250;2023-04-16T07:58:02;19.37;;;12.60;;
67272;SDS011;54190;49.770;9.250;2023-04-16T08:00:30;18.83;;;13.00;;
67272;SDS011;54190;49.770;9.250;2023-04-16T08:02:56;17.53;;;12.47;;
67272;SDS011;54190;49.770;9.250;2023-04-16T08:05:21;16.90;;;10.70;;
67272;SDS011;54190;49.770;9.250;2023-04-16T08:07:47;17.50;;;12.60;;
67272;SDS011;54190;49.770;9.250;2023-04-16T08:10:12;16.50;;;10.93;;
67272;SDS011;54190;49.770;9.250;2023-04-16T08:12:38;16.70;;;10.63;;
67272;SDS011;54190;49.770;9.250;2023-04-16T08:15:04;19.70;;;13.00;;
67272;SDS011;54190;49.770;9.250;2023-04-16T08:17:31;18.40;;;12.33;;
67272;SDS011;54190;49.770;9.250;2023-04-16T08:19:58;17.43;;;12.20;;
67272;SDS011;54190;49.770;9.250;2023-04-16T08:22:24;17.57;;;11.83;;
67272;SDS011;54190;49.770;9.250;2023-04-16T08:24:50;19.13;;;12.50;;
67272;SDS011;54190;49.770;9.250;2023-04-16T08:27:16;18.30;;;12.80;;
67272;SDS011;54190;49.770;9.250;2023-04-16T08:29:42;21.23;;;13.27;;
67272;SDS011;54190;49.770;9.250;2023-04-16T08:32:07;17.43;;;12.60;;
67272;SDS011;54190;49.770;9.250;2023-04-16T08:34:34;19.33;;;13.27;;
67272;SDS011;54190;49.770;9.250;2023-04-16T08:37:00;22.40;;;13.60;;
67272;SDS011;54190;49.770;9.250;2023-04-16T08:39:26;19.63;;;12.00;;
67272;SDS011;54190;49.770;9.250;2023-04-16T08:41:52;16.60;;;12.67;;
67272;SDS011;54190;49.770;9.250;2023-04-16T08:44:25;17.23;;;11.37;;
67272;SDS011;54190;49.770;9.250;2023-04-16T08:46:52;18.20;;;13.20;;
67272;SDS011;54190;49.770;9.250;2023-04-16T08:49:23;17.60;;;12.40;;
67272;SDS011;54190;49.770;9.250;2023-04-16T08:51:51;18.40;;;12.17;;
67272;SDS011;54190;49.770;9.250;2023-04-16T08:56:58;17.07;;;12.03;;
67272;SDS011;54190;49.770;9.250;2023-04-16T08:59:26;20.53;;;13.37;;
67272;SDS011;54190;49.770;9.250;2023-04-16T09:01:59;20.50;;;13.27;;
67272;SDS011;54190;49.770;9.250;2023-04-16T09:04:25;22.47;;;14.23;;
67272;SDS011;54190;49.770;9.250;2023-04-16T09:06:54;21.63;;;14.00;;
67272;SDS011;54190;49.770;9.250;2023-04-16T09:09:21;20.80;;;13.90;;
67272;SDS011;54190;49.770;9.250;2023-04-16T09:11:50;22.67;;;12.77;;
67272;SDS011;54190;49.770;9.250;2023-04-16T09:14:17;20.30;;;13.87;;
67272;SDS011;54190;49.770;9.250;2023-04-16T09:16:43;17.90;;;12.47;;
67272;SDS011;54190;49.770;9.250;2023-04-16T09:19:11;20.13;;;14.33;;
67272;SDS011;54190;49.770;9.250;2023-04-16T09:21:37;22.60;;;14.50;;
67272;SDS011;54190;49.770;9.250;2023-04-16T09:24:05;20.23;;;13.90;;
67272;SDS011;54190;49.770;9.250;2023-04-16T09:26:33;24.50;;;14.90;;
67272;SDS011;54190;49.770;9.250;2023-04-16T09:28:59;23.20;;;13.87;;
67272;SDS011;54190;49.770;9.250;2023-04-16T09:31:25;21.63;;;14.20;;
67272;SDS011;54190;49.770;9.250;2023-04-16T09:36:30;19.20;;;13.70;;
67272;SDS011;54190;49.770;9.250;2023-04-16T09:38:57;22.57;;;13.63;;
67272;SDS011;54190;49.770;9.250;2023-04-16T09:41:24;18.40;;;12.93;;
67272;SDS011;54190;49.770;9.250;2023-04-16T09:43:55;19.70;;;13.70;;
67272;SDS011;54190;49.770;9.250;2023-04-16T09:46:41;22.07;;;14.47;;
67272;SDS011;54190;49.770;9.250;2023-04-16T09:49:13;23.03;;;14.67;;
67272;SDS011;54190;49.770;9.250;2023-04-16T09:51:40;25.47;;;15.00;;
67272;SDS011;54190;49.770;9.250;2023-04-16T09:54:06;20.03;;;13.67;;
67272;SDS011;54190;49.770;9.250;2023-04-16T09:56:32;21.47;;;14.10;;
67272;SDS011;54190;49.770;9.250;2023-04-16T09:59:03;24.43;;;14.37;;
67272;SDS011;54190;49.770;9.250;2023-04-16T10:01:29;23.90;;;14.60;;
67272;SDS011;54190;49.770;9.250;2023-04-16T10:03:55;23.73;;;15.97;;
67272;SDS011;54190;49.770;9.250;2023-04-16T10:06:23;27.07;;;16.03;;
67272;SDS011;54190;49.770;9.250;2023-04-16T10:08:52;26.67;;;15.17;;
67272;SDS011;54190;49.770;9.250;2023-04-16T10:11:21;24.63;;;15.67;;
67272;SDS011;54190;49.770;9.250;2023-04-16T10:13:47;27.47;;;16.33;;
67272;SDS011;54190;49.770;9.250;2023-04-16T10:16:13;33.40;;;20.87;;
67272;SDS011;54190;49.770;9.250;2023-04-16T10:18:43;36.63;;;22.53;;
67272;SDS011;54190;49.770;9.250;2023-04-16T10:21:10;32.10;;;20.07;;
67272;SDS011;54190;49.770;9.250;2023-04-16T10:23:39;36.23;;;22.20;;
67272;SDS011;54190;49.770;9.250;2023-04-16T10:26:06;41.73;;;23.80;;
67272;SDS011;54190;49.770;9.250;2023-04-16T10:28:32;46.53;;;28.60;;
67272;SDS011;54190;49.770;9.250;2023-04-16T10:31:00;29.60;;;18.03;;
67272;SDS011;54190;49.770;9.250;2023-04-16T10:33:28;30.03;;;18.13;;
67272;SDS011;54190;49.770;9.250;2023-04-16T10:36:09;22.63;;;15.77;;
67272;SDS011;54190;49.770;9.250;2023-04-16T10:38:37;32.87;;;20.70;;
67272;SDS011;54190;49.770;9.250;2023-04-16T10:41:10;28.80;;;18.30;;
67272;SDS011;54190;49.770;9.250;2023-04-16T10:43:39;27.07;;;19.00;;
67272;SDS011;54190;49.770;9.250;2023-04-16T10:48:45;28.83;;;18.27;;
67272;SDS011;54190;49.770;9.250;2023-04-16T10:51:31;29.60;;;18.83;;
67272;SDS011;54190;49.770;9.250;2023-04-16T10:54:02;28.17;;;20.00;;
67272;SDS011;54190;49.770;9.250;2023-04-16T10:56:38;26.90;;;17.87;;
67272;SDS011;54190;49.770;9.250;2023-04-16T10:59:04;26.10;;;16.90;;
67272;SDS011;54190;49.770;9.250;2023-04-16T11:01:35;26.83;;;18.40;;
67272;SDS011;54190;49.770;9.250;2023-04-16T11:04:48;33.90;;;21.30;;
67272;SDS011;54190;49.770;9.250;2023-04-16T11:12:11;28.37;;;19.97;;
67272;SDS011;54190;49.770;9.250;2023-04-16T11:14:39;24.67;;;16.03;;
67272;SDS011;54190;49.770;9.250;2023-04-16T11:17:05;23.27;;;16.40;;
67272;SDS011;54190;49.770;9.250;2023-04-16T11:19:31;23.67;;;16.87;;
67272;SDS011;54190;49.770;9.250;2023-04-16T11:21:57;23.73;;;16.03;;
67272;SDS011;54190;49.770;9.250;2023-04-16T11:24:23;29.27;;;19.47;;
67272;SDS011;54190;49.770;9.250;2023-04-16T11:26:53;32.40;;;19.77;;
67272;SDS011;54190;49.770;9.250;2023-04-16T11:29:19;26.00;;;15.77;;
67272;SDS011;54190;49.770;9.250;2023-04-16T11:31:48;28.07;;;18.67;;
67272;SDS011;54190;49.770;9.250;2023-04-16T11:34:15;28.97;;;18.50;;
67272;SDS011;54190;49.770;9.250;2023-04-16T11:36:43;30.40;;;19.40;;
67272;SDS011;54190;49.770;9.250;2023-04-16T11:39:09;31.23;;;19.50;;
67272;SDS011;54190;49.770;9.250;2023-04-16T11:41:40;28.60;;;17.87;;
67272;SDS011;54190;49.770;9.250;2023-04-16T11:44:15;30.27;;;19.93;;
67272;SDS011;54190;49.770;9.250;2023-04-16T11:46:51;28.70;;;19.30;;
67272;SDS011;54190;49.770;9.250;2023-04-16T11:49:27;34.13;;;20.37;;
67272;SDS011;54190;49.770;9.250;2023-04-16T11:51:53;32.83;;;21.10;;
67272;SDS011;54190;49.770;9.250;2023-04-16T11:54:20;28.27;;;19.07;;
67272;SDS011;54190;49.770;9.250;2023-04-16T11:56:49;31.40;;;21.80;;
67272;SDS011;54190;49.770;9.250;2023-04-16T11:59:20;31.07;;;20.57;;
67272;SDS011;54190;49.770;9.250;2023-04-16T12:01:48;30.57;;;19.33;;
67272;SDS011;54190;49.770;9.250;2023-04-16T12:04:15;28.37;;;19.60;;
67272;SDS011;54190;49.770;9.250;2023-04-16T12:09:33;32.33;;;22.57;;
67272;SDS011;54190;49.770;9.250;2023-04-16T12:12:00;30.83;;;20.87;;
67272;SDS011;54190;49.770;9.250;2023-04-16T12:14:26;31.10;;;21.33;;
67272;SDS011;54190;49.770;9.250;2023-04-16T12:16:53;33.27;;;20.23;;
67272;SDS011;54190;49.770;9.250;2023-04-16T12:19:18;26.57;;;17.80;;
67272;SDS011;54190;49.770;9.250;2023-04-16T12:21:45;31.97;;;22.37;;
67272;SDS011;54190;49.770;9.250;2023-04-16T12:24:13;31.73;;;21.40;;
67272;SDS011;54190;49.770;9.250;2023-04-16T12:26:51;31.07;;;19.07;;
67272;SDS011;54190;49.770;9.250;2023-04-16T12:29:24;30.73;;;20.27;;
67272;SDS011;54190;49.770;9.250;2023-04-16T12:31:51;37.20;;;22.23;;
67272;SDS011;54190;49.770;9.250;2023-04-16T12:34:18;33.23;;;21.60;;
67272;SDS011;54190;49.770;9.250;2023-04-16T12:36:45;34.33;;;21.70;;
67272;SDS011;54190;49.770;9.250;2023-04-16T12:39:13;40.80;;;22.60;;
67272;SDS011;54190;49.770;9.250;2023-04-16T12:41:40;29.63;;;20.20;;
67272;SDS011;54190;49.770;9.250;2023-04-16T12:44:16;33.10;;;19.70;;
67272;SDS011;54190;49.770;9.250;2023-04-16T12:46:42;32.33;;;21.00;;
67272;SDS011;54190;49.770;9.250;2023-04-16T12:49:09;34.00;;;21.47;;
67272;SDS011;54190;49.770;9.250;2023-04-16T12:51:35;32.20;;;22.10;;
67272;SDS011;54190;49.770;9.250;2023-04-16T12:54:03;37.03;;;23.20;;
67272;SDS011;54190;49.770;9.250;2023-04-16T12:56:29;33.17;;;21.67;;
67272;SDS011;54190;49.770;9.250;2023-04-16T12:58:55;37.10;;;26.77;;
67272;SDS011;54190;49.770;9.250;2023-04-16T13:01:22;39.47;;;26.70;;
67272;SDS011;54190;49.770;9.250;2023-04-16T13:03:47;36.30;;;24.40;;
67272;SDS011;54190;49.770;9.250;2023-04-16T13:06:14;46.53;;;29.73;;
67272;SDS011;54190;49.770;9.250;2023-04-16T13:08:41;38.20;;;23.63;;
67272;SDS011;54190;49.770;9.250;2023-04-16T13:11:08;41.50;;;26.60;;
67272;SDS011;54190;49.770;9.250;2023-04-16T13:13:34;40.97;;;27.70;;
67272;SDS011;54190;49.770;9.250;2023-04-16T13:16:00;34.00;;;22.13;;
67272;SDS011;54190;49.770;9.250;2023-04-16T13:18:28;38.50;;;24.10;;
67272;SDS011;54190;49.770;9.250;2023-04-16T13:20:54;39.23;;;24.47;;
67272;SDS011;54190;49.770;9.250;2023-04-16T13:23:19;45.63;;;26.10;;
67272;SDS011;54190;49.770;9.250;2023-04-16T13:25:45;33.33;;;21.63;;
67272;SDS011;54190;49.770;9.250;2023-04-16T13:28:11;34.63;;;21.03;;
67272;SDS011;54190;49.770;9.250;2023-04-16T13:30:36;30.30;;;20.20;;
67272;SDS011;54190;49.770;9.250;2023-04-16T13:33:02;28.30;;;20.23;;
67272;SDS011;54190;49.770;9.250;2023-04-16T13:35:28;39.40;;;23.13;;
67272;SDS011;54190;49.770;9.250;2023-04-16T13:37:54;28.83;;;20.27;;
67272;SDS011;54190;49.770;9.250;2023-04-16T13:40:20;25.50;;;17.37;;
67272;SDS011;54190;49.770;9.250;2023-04-16T13:42:46;29.90;;;18.97;;
67272;SDS011;54190;49.770;9.250;2023-04-16T13:45:11;26.67;;;17.97;;
67272;SDS011;54190;49.770;9.250;2023-04-16T13:47:38;27.80;;;18.23;;
67272;SDS011;54190;49.770;9.250;2023-04-16T13:50:05;23.50;;;16.87;;
67272;SDS011;54190;49.770;9.250;2023-04-16T13:52:32;26.13;;;18.00;;
67272;SDS011;54190;49.770;9.250;2023-04-16T13:54:57;28.60;;;18.87;;
67272;SDS011;54190;49.770;9.250;2023-04-16T13:57:23;28.57;;;20.20;;
67272;SDS011;54190;49.770;9.250;2023-04-16T13:59:49;26.80;;;18.10;;
67272;SDS011;54190;49.770;9.250;2023-04-16T14:02:15;27.33;;;18.10;;
67272;SDS011;54190;49.770;9.250;2023-04-16T14:04:40;27.03;;;18.20;;
67272;SDS011;54190;49.770;9.250;2023-04-16T14:07:06;26.70;;;17.97;;
67272;SDS011;54190;49.770;9.250;2023-04-16T14:09:32;22.50;;;15.80;;
67272;SDS011;54190;49.770;9.250;2023-04-16T14:11:57;21.30;;;15.70;;
67272;SDS011;54190;49.770;9.250;2023-04-16T14:14:23;31.43;;;20.33;;
67272;SDS011;54190;49.770;9.250;2023-04-16T14:16:49;18.07;;;14.10;;
67272;SDS011;54190;49.770;9.250;2023-04-16T14:19:17;21.83;;;14.93;;
67272;SDS011;54190;49.770;9.250;2023-04-16T14:21:43;18.47;;;13.53;;
67272;SDS011;54190;49.770;9.250;2023-04-16T14:24:09;18.53;;;12.90;;
67272;SDS011;54190;49.770;9.250;2023-04-16T14:26:34;19.17;;;12.87;;
67272;SDS011;54190;49.770;9.250;2023-04-16T14:29:00;16.70;;;11.10;;
67272;SDS011;54190;49.770;9.250;2023-04-16T14:31:26;16.40;;;11.20;;
67272;SDS011;54190;49.770;9.250;2023-04-16T14:33:51;14.57;;;10.30;;
67272;SDS011;54190;49.770;9.250;2023-04-16T14:36:17;14.27;;;9.43;;